Time;durP1;ratioP1;P1;durP2;ratioP2;P2;SDS_P1;SDS_P2;PMS_P1;PMS_P2;Temp;Humidity;BMP_temperature;BMP_pressure;BME280_temperature;BME280_humidity;BME280_pressure;Samples;Min_cycle;Max_cycle;Signal;HPM_P1;HPM_P2
2023/06/20 00:00:43;;;;;;;27.37;24.77;;;;;;;19.88;80.36;100785.38;4968136;28;20500;-72
2023/06/20 00:03:12;;;;;;;29.67;26.83;;;;;;;19.74;81.18;100784.19;4972801;28;20444;-72
2023/06/20 00:05:41;;;;;;;31.17;28.30;;;;;;;19.75;81.60;100788.59;4973743;28;20791;-71
2023/06/20 00:08:11;;;;;;;27.13;24.60;;;;;;;19.86;80.89;100787.53;4966654;28;20517;-71
2023/06/20 00:10:41;;;;;;;29.43;26.40;;;;;;;19.98;80.64;100788.16;5022570;23;20471;-82
2023/06/20 00:13:10;;;;;;;27.50;25.07;;;;;;;19.86;81.33;100788.38;4988922;28;20442;-81
2023/06/20 00:15:41;;;;;;;31.20;28.50;;;;;;;19.92;81.13;100791.97;4990397;28;20471;-82
2023/06/20 00:18:10;;;;;;;31.17;28.17;;;;;;;20.01;80.90;100787.63;5001508;28;20445;-82
2023/06/20 00:20:39;;;;;;;31.17;28.30;;;;;;;19.88;80.93;100785.38;4985584;28;20498;-82
2023/06/20 00:23:08;;;;;;;29.10;26.37;;;;;;;19.75;81.82;100785.84;4987872;28;20469;-83
2023/06/20 00:25:37;;;;;;;30.77;27.77;;;;;;;19.89;81.23;100787.03;4978816;28;20443;-81
2023/06/20 00:28:08;;;;;;;30.40;27.60;;;;;;;19.69;82.83;100775.91;4992208;28;20447;-81
2023/06/20 00:30:37;;;;;;;28.67;26.03;;;;;;;19.59;83.48;100776.69;4976707;28;20881;-81
2023/06/20 00:33:06;;;;;;;32.70;29.60;;;;;;;19.55;84.27;100780.22;4980459;28;20506;-82
2023/06/20 00:35:37;;;;;;;28.67;26.23;;;;;;;19.58;84.18;100768.69;4974772;28;20426;-82
2023/06/20 00:38:06;;;;;;;28.83;26.03;;;;;;;19.50;84.67;100787.34;4975463;28;20431;-82
2023/06/20 00:40:35;;;;;;;30.07;27.30;;;;;;;19.51;84.72;100772.50;4994874;28;20451;-80
2023/06/20 00:43:04;;;;;;;32.93;29.53;;;;;;;19.80;82.42;100783.13;4994932;28;20419;-81
2023/06/20 00:45:35;;;;;;;32.60;29.50;;;;;;;19.76;82.84;100779.25;4980197;28;20448;-81
2023/06/20 00:48:06;;;;;;;31.37;28.30;;;;;;;19.94;81.71;100773.31;4977197;28;20406;-81
2023/06/20 00:50:36;;;;;;;29.87;27.03;;;;;;;20.05;80.43;100774.19;4977347;28;20454;-81
2023/06/20 00:53:07;;;;;;;30.80;27.90;;;;;;;19.89;80.59;100765.88;4982901;28;20490;-82
2023/06/20 00:55:37;;;;;;;27.67;25.07;;;;;;;19.83;80.64;100772.44;4989523;28;20708;-81
2023/06/20 00:58:06;;;;;;;28.97;26.20;;;;;;;19.78;80.42;100768.84;4994242;28;20419;-80
2023/06/20 01:00:38;;;;;;;28.43;25.73;;;;;;;19.68;80.74;100757.78;4999986;28;20479;-81
2023/06/20 01:03:11;;;;;;;27.20;24.60;;;;;;;19.64;80.94;100762.16;4991545;28;20421;-81
2023/06/20 01:05:43;;;;;;;27.37;24.77;;;;;;;19.61;81.13;100757.19;4982273;28;20436;-84
2023/06/20 01:08:22;;;;;;;27.97;25.37;;;;;;;19.53;81.70;100756.59;4961810;28;20401;-81
2023/06/20 01:11:00;;;;;;;27.07;24.57;;;;;;;19.50;81.66;100746.16;4971568;28;20449;-82
2023/06/20 01:13:40;;;;;;;28.60;25.77;;;;;;;19.44;82.14;100738.97;4978571;28;20502;-82
2023/06/20 01:16:23;;;;;;;27.57;25.03;;;;;;;19.43;82.36;100740.03;4970830;28;20470;-81
2023/06/20 01:19:03;;;;;;;29.60;26.60;;;;;;;19.39;82.57;100738.91;4956482;28;20395;-83
2023/06/20 01:21:40;;;;;;;26.93;24.57;;;;;;;19.42;82.20;100727.41;4983209;28;20520;-82
2023/06/20 01:24:16;;;;;;;26.87;24.17;;;;;;;19.27;83.32;100737.44;4968452;28;20473;-81
2023/06/20 01:26:53;;;;;;;28.30;25.60;;;;;;;19.20;83.60;100737.69;4971606;28;20421;-81
2023/06/20 01:29:32;;;;;;;28.23;25.50;;;;;;;19.13;83.57;100736.22;4981704;28;20409;-82
2023/06/20 01:32:04;;;;;;;28.47;25.90;;;;;;;19.03;84.57;100739.72;4979158;28;20597;-82
2023/06/20 01:34:40;;;;;;;27.23;24.73;;;;;;;18.98;84.45;100737.75;4991852;28;20414;-81
2023/06/20 01:37:16;;;;;;;29.53;26.53;;;;;;;19.09;84.02;100733.19;4986239;28;20951;-82
2023/06/20 01:39:50;;;;;;;28.73;26.07;;;;;;;19.08;83.32;100732.38;4983880;28;20814;-81
2023/06/20 01:42:24;;;;;;;28.17;25.23;;;;;;;19.04;83.35;100728.50;4977972;28;20423;-82
2023/06/20 01:44:56;;;;;;;29.20;26.10;;;;;;;19.03;83.34;100728.75;4981631;28;20821;-82
2023/06/20 01:47:27;;;;;;;27.27;24.67;;;;;;;18.97;83.33;100732.56;4976763;28;20427;-82
2023/06/20 01:49:58;;;;;;;28.20;25.60;;;;;;;19.01;83.21;100730.94;4978285;28;20538;-80
2023/06/20 01:52:29;;;;;;;29.53;26.83;;;;;;;18.96;83.18;100729.00;4978677;28;20435;-84
2023/06/20 01:55:04;;;;;;;28.90;26.30;;;;;;;18.90;84.31;100730.03;4982173;28;20783;-82
2023/06/20 01:57:36;;;;;;;28.13;25.50;;;;;;;18.80;84.39;100737.31;4979674;28;20446;-83
2023/06/20 02:00:08;;;;;;;28.80;26.03;;;;;;;18.82;84.05;100733.25;4966963;28;20489;-82
2023/06/20 02:02:50;;;;;;;26.73;24.17;;;;;;;19.00;82.53;100740.25;4976070;28;20425;-82
2023/06/20 02:05:22;;;;;;;28.10;24.77;;;;;;;19.04;82.11;100741.38;4978175;28;20497;-80
2023/06/20 02:07:55;;;;;;;28.77;25.87;;;;;;;19.04;82.07;100735.88;4986598;28;20454;-82
2023/06/20 02:10:27;;;;;;;27.30;24.40;;;;;;;19.05;82.27;100732.06;4985057;28;20461;-81
2023/06/20 02:12:57;;;;;;;27.27;24.57;;;;;;;19.08;81.40;100720.56;4981231;28;20446;-83
2023/06/20 02:15:29;;;;;;;29.20;26.57;;;;;;;19.11;81.04;100736.50;4975506;28;20405;-81
2023/06/20 02:18:02;;;;;;;27.40;24.73;;;;;;;19.00;81.77;100732.03;4987091;28;20402;-81
2023/06/20 02:20:31;;;;;;;28.50;25.43;;;;;;;18.96;81.92;100729.00;4995017;28;20477;-82
2023/06/20 02:23:04;;;;;;;26.17;23.77;;;;;;;18.84;82.76;100719.25;5001859;28;20802;-82
2023/06/20 02:25:36;;;;;;;28.90;26.00;;;;;;;18.92;83.28;100722.38;4990744;28;20428;-81
2023/06/20 02:28:09;;;;;;;29.47;26.63;;;;;;;18.72;84.09;100727.66;4978069;28;21014;-82
2023/06/20 02:30:39;;;;;;;31.53;28.33;;;;;;;18.62;84.16;100719.34;4979264;28;20459;-81
2023/06/20 02:33:11;;;;;;;29.63;26.53;;;;;;;18.72;84.13;100733.16;4981233;28;20430;-81
2023/06/20 02:35:43;;;;;;;28.13;25.53;;;;;;;19.06;83.33;100730.97;4983318;28;20431;-81
2023/06/20 02:38:13;;;;;;;29.00;26.30;;;;;;;19.29;82.23;100732.53;4989895;28;20392;-81
2023/06/20 02:40:44;;;;;;;28.10;25.50;;;;;;;19.20;81.87;100734.94;4998069;28;20463;-81
2023/06/20 02:43:13;;;;;;;29.40;26.50;;;;;;;19.04;82.50;100741.38;4982218;28;20462;-81
2023/06/20 02:45:43;;;;;;;27.80;25.27;;;;;;;18.98;82.94;100736.94;4976165;28;20722;-82
2023/06/20 02:48:27;;;;;;;29.83;26.97;;;;;;;18.86;83.47;100733.56;4981149;28;20429;-81
2023/06/20 02:51:06;;;;;;;27.53;24.80;;;;;;;18.76;83.88;100734.28;4974390;28;20453;-82
2023/06/20 02:53:50;;;;;;;29.27;26.33;;;;;;;18.89;83.28;100746.72;4971341;28;20413;-81
2023/06/20 02:56:22;;;;;;;29.90;27.00;;;;;;;19.02;83.42;100746.31;4988339;28;20420;-84
2023/06/20 02:58:54;;;;;;;32.83;29.40;;;;;;;19.10;83.80;100741.16;5007510;28;20446;-83
2023/06/20 03:01:26;;;;;;;29.50;26.60;;;;;;;19.17;82.38;100740.13;4991305;28;20446;-83
2023/06/20 03:03:58;;;;;;;28.97;26.27;;;;;;;19.13;82.02;100737.06;4982279;28;20416;-83
2023/06/20 03:06:29;;;;;;;29.40;26.80;;;;;;;19.17;82.10;100740.94;4981486;28;20481;-83
2023/06/20 03:09:02;;;;;;;28.97;26.37;;;;;;;19.19;82.41;100744.25;4981924;28;20505;-82
2023/06/20 03:11:35;;;;;;;29.17;26.27;;;;;;;19.25;81.93;100740.47;4998767;28;21062;-82
2023/06/20 03:14:05;;;;;;;30.37;27.57;;;;;;;19.32;81.60;100738.31;5006147;28;20419;-82
2023/06/20 03:16:35;;;;;;;33.50;30.50;;;;;;;19.40;80.80;100740.56;5003949;28;20413;-83
2023/06/20 03:19:04;;;;;;;32.60;29.50;;;;;;;19.47;79.28;100740.34;4986547;28;20439;-83
2023/06/20 03:21:33;;;;;;;30.80;28.00;;;;;;;19.43;79.71;100742.78;4987423;28;20482;-84
2023/06/20 03:24:05;;;;;;;30.23;27.10;;;;;;;19.31;79.92;100753.13;4987049;28;20421;-83
2023/06/20 03:26:37;;;;;;;30.03;27.20;;;;;;;19.62;78.94;100764.34;4989641;28;20445;-84
2023/06/20 03:29:06;;;;;;;30.50;26.33;;;;;;;19.56;78.81;100765.41;4985465;28;20924;-82
2023/06/20 03:31:36;;;;;;;29.90;26.90;;;;;;;19.50;78.83;100768.13;4981728;28;20466;-84
2023/06/20 03:34:06;;;;;;;31.10;28.17;;;;;;;19.45;79.17;100768.09;4980178;28;20788;-83
2023/06/20 03:36:35;;;;;;;28.90;26.10;;;;;;;19.64;78.70;100781.38;4978520;28;20434;-83
2023/06/20 03:39:05;;;;;;;31.23;28.23;;;;;;;19.81;77.97;100774.59;4984900;28;20962;-82
2023/06/20 03:41:36;;;;;;;32.03;27.40;;;;;;;19.93;77.39;100779.91;4995745;28;20445;-83
2023/06/20 03:44:05;;;;;;;33.23;29.90;;;;;;;20.30;75.88;100775.16;4977263;28;20439;-82
2023/06/20 03:46:35;;;;;;;29.97;27.27;;;;;;;20.61;73.63;100778.00;4977874;28;20853;-83
2023/06/20 03:49:04;;;;;;;33.73;28.03;;;;;;;20.49;74.17;100775.47;4979635;28;20456;-81
2023/06/20 03:51:33;;;;;;;32.93;29.90;;;;;;;20.39;73.87;100770.78;4978706;28;20485;-82
2023/06/20 03:54:03;;;;;;;33.17;29.97;;;;;;;20.31;73.80;100774.06;4977133;28;20428;-83
2023/06/20 03:56:35;;;;;;;32.90;29.90;;;;;;;20.20;74.23;100777.81;4976322;28;20443;-84
2023/06/20 03:59:05;;;;;;;32.00;29.17;;;;;;;20.19;74.97;100769.84;4974048;28;20486;-83
2023/06/20 04:01:33;;;;;;;30.43;27.57;;;;;;;20.15;74.71;100780.53;4973384;28;20465;-81
2023/06/20 04:04:03;;;;;;;30.50;27.53;;;;;;;20.18;74.50;100784.69;4961709;28;20993;-81
2023/06/20 04:06:34;;;;;;;30.60;27.40;;;;;;;20.14;74.68;100784.38;4968914;28;20433;-82
2023/06/20 04:09:04;;;;;;;30.87;27.83;;;;;;;20.09;75.09;100787.09;4979401;28;20677;-81
2023/06/20 04:11:36;;;;;;;30.97;27.80;;;;;;;20.14;74.88;100781.63;4978904;28;21026;-81
2023/06/20 04:14:05;;;;;;;30.93;27.73;;;;;;;20.02;75.14;100792.03;4977119;28;20432;-80
2023/06/20 04:16:34;;;;;;;31.17;28.30;;;;;;;20.06;75.24;100793.16;4979148;28;20424;-80
2023/06/20 04:19:03;;;;;;;33.93;30.77;;;;;;;20.10;74.93;100801.66;4992246;28;20443;-80
2023/06/20 04:21:32;;;;;;;30.40;27.47;;;;;;;20.02;75.38;100794.78;4991522;28;20531;-81
2023/06/20 04:24:01;;;;;;;32.47;29.07;;;;;;;20.02;75.67;100803.03;4982787;28;20403;-82
2023/06/20 04:26:31;;;;;;;31.27;28.27;;;;;;;20.05;75.67;100801.66;4977356;28;20474;-81
2023/06/20 04:29:01;;;;;;;30.60;27.83;;;;;;;20.10;75.40;100794.25;4979058;28;20401;-81
2023/06/20 04:31:33;;;;;;;32.00;28.80;;;;;;;20.73;73.18;100792.31;4978165;28;20463;-82
2023/06/20 04:34:03;;;;;;;32.53;29.37;;;;;;;21.91;67.68;100792.88;4988535;28;20425;-81
2023/06/20 04:36:34;;;;;;;33.20;30.10;;;;;;;22.92;64.00;100803.50;4997361;28;20463;-81
2023/06/20 04:39:06;;;;;;;30.37;27.67;;;;;;;24.10;59.11;100806.88;4993766;28;20447;-81
2023/06/20 04:41:36;;;;;;;31.97;28.97;;;;;;;23.91;59.46;100805.97;4994784;28;20486;-80
2023/06/20 04:44:07;;;;;;;32.70;29.70;;;;;;;24.55;57.76;100800.78;4991895;28;20427;-82
2023/06/20 04:46:36;;;;;;;29.80;27.00;;;;;;;25.53;54.76;100799.84;4985273;28;20441;-83
2023/06/20 04:49:05;;;;;;;31.43;28.27;;;;;;;26.11;52.61;100801.28;4973464;28;20412;-83
2023/06/20 04:51:36;;;;;;;31.13;28.43;;;;;;;26.16;52.13;100793.69;4981823;28;20470;-87
2023/06/20 04:54:05;;;;;;;32.70;29.70;;;;;;;26.42;51.53;100795.97;5000854;23;20472;-68
2023/06/20 04:56:40;;;;;;;32.20;29.30;;;;;;;27.05;49.45;100805.09;4983792;28;20505;-67
2023/06/20 04:59:11;;;;;;;32.70;29.63;;;;;;;26.01;51.71;100796.75;4976015;28;20872;-67
2023/06/20 05:01:40;;;;;;;33.23;30.33;;;;;;;24.88;54.79;100806.47;4974928;28;20409;-69
2023/06/20 05:04:10;;;;;;;32.33;29.30;;;;;;;23.79;57.99;100800.84;4979775;28;20431;-68
2023/06/20 05:06:40;;;;;;;31.50;28.80;;;;;;;23.22;60.57;100793.34;4973492;28;20573;-69
2023/06/20 05:09:09;;;;;;;31.97;28.67;;;;;;;22.68;62.68;100801.69;4977281;28;20432;-69
2023/06/20 05:11:38;;;;;;;32.53;29.43;;;;;;;22.43;63.59;100805.38;4972706;28;20434;-69
2023/06/20 05:14:07;;;;;;;31.20;28.00;;;;;;;22.40;63.76;100806.78;4975170;28;20456;-69
2023/06/20 05:16:38;;;;;;;32.93;30.00;;;;;;;22.26;64.53;100811.25;4974116;28;20446;-68
2023/06/20 05:19:07;;;;;;;30.83;27.93;;;;;;;22.22;64.66;100810.16;4972836;28;20420;-68
2023/06/20 05:21:36;;;;;;;31.90;29.03;;;;;;;22.06;65.65;100814.91;4974138;28;20504;-70
2023/06/20 05:24:06;;;;;;;34.30;31.10;;;;;;;22.07;65.39;100812.97;4977602;28;20927;-69
2023/06/20 05:26:35;;;;;;;31.37;28.47;;;;;;;21.92;66.18;100811.06;4981136;28;20544;-68
2023/06/20 05:29:04;;;;;;;30.53;27.70;;;;;;;21.79;66.62;100813.53;4977198;28;20416;-69
2023/06/20 05:31:33;;;;;;;33.97;30.73;;;;;;;21.76;67.10;100817.69;4976364;28;20787;-69
2023/06/20 05:34:04;;;;;;;30.43;27.50;;;;;;;21.77;67.18;100821.28;4977080;28;20442;-68
2023/06/20 05:36:33;;;;;;;31.67;28.67;;;;;;;21.81;66.97;100820.44;4979209;28;20433;-69
2023/06/20 05:39:03;;;;;;;34.97;31.40;;;;;;;21.96;66.24;100822.38;4975963;28;20431;-70
2023/06/20 05:41:32;;;;;;;33.53;30.50;;;;;;;21.98;65.89;100823.72;4976532;28;20435;-67
2023/06/20 05:44:01;;;;;;;31.40;28.60;;;;;;;22.13;65.84;100824.78;4978360;28;20795;-68
2023/06/20 05:46:31;;;;;;;32.80;29.70;;;;;;;22.13;65.11;100822.03;4975617;28;20510;-66
2023/06/20 05:49:00;;;;;;;33.33;30.43;;;;;;;22.04;65.68;100828.13;4979908;28;20409;-68
2023/06/20 05:51:30;;;;;;;35.77;32.10;;;;;;;22.00;66.05;100823.47;4980671;28;20422;-70
2023/06/20 05:54:00;;;;;;;33.40;30.07;;;;;;;21.99;65.78;100825.38;4973671;28;20446;-69
2023/06/20 05:56:29;;;;;;;34.70;31.30;;;;;;;21.96;65.61;100833.41;4977476;28;20802;-72
2023/06/20 05:59:01;;;;;;;34.03;31.00;;;;;;;21.87;66.45;100833.13;4980057;28;20413;-68
2023/06/20 06:01:30;;;;;;;32.93;29.80;;;;;;;22.09;65.61;100830.88;4979379;28;20489;-68
2023/06/20 06:03:59;;;;;;;34.23;30.50;;;;;;;22.33;64.96;100838.50;4978232;28;20404;-70
2023/06/20 06:06:31;;;;;;;32.57;29.27;;;;;;;22.61;64.36;100829.56;4983575;28;20459;-69
2023/06/20 06:09:00;;;;;;;31.23;28.43;;;;;;;23.05;62.92;100831.53;4983458;28;20409;-68
2023/06/20 06:11:29;;;;;;;32.57;29.40;;;;;;;23.62;61.64;100841.91;4978927;28;20435;-67
2023/06/20 06:13:58;;;;;;;31.83;28.60;;;;;;;23.75;59.78;100838.47;4977447;28;20519;-67
2023/06/20 06:16:28;;;;;;;34.87;31.57;;;;;;;23.87;59.72;100835.31;4982641;28;20428;-68
2023/06/20 06:18:57;;;;;;;32.07;29.17;;;;;;;24.13;59.72;100842.22;4980851;28;20430;-69
2023/06/20 06:21:26;;;;;;;32.00;29.17;;;;;;;24.15;59.23;100837.22;4978456;28;20411;-70
2023/06/20 06:23:57;;;;;;;32.33;29.13;;;;;;;24.42;59.05;100831.94;4975853;28;20437;-69
2023/06/20 06:26:26;;;;;;;34.30;30.87;;;;;;;24.79;57.55;100830.34;4975742;28;20536;-69
2023/06/20 06:28:55;;;;;;;33.47;30.27;;;;;;;24.79;57.19;100830.34;4975708;28;20439;-68
2023/06/20 06:31:29;;;;;;;33.93;30.73;;;;;;;24.51;58.64;100830.16;4974850;28;20413;-69
2023/06/20 06:33:59;;;;;;;33.87;30.33;;;;;;;24.73;57.87;100826.84;4975066;28;20432;-68
2023/06/20 06:36:36;;;;;;;31.83;29.00;;;;;;;25.01;57.24;100833.38;4977488;28;20571;-65
2023/06/20 06:39:11;;;;;;;33.00;30.20;;;;;;;25.06;56.55;100827.78;4977887;28;20942;-68
2023/06/20 06:41:40;;;;;;;33.80;30.67;;;;;;;25.24;56.35;100824.16;4983366;28;20432;-70
2023/06/20 06:44:10;;;;;;;34.83;31.60;;;;;;;25.51;55.58;100818.69;4982654;28;20409;-69
2023/06/20 06:46:40;;;;;;;35.37;32.00;;;;;;;25.59;54.61;100817.22;4982960;28;20470;-70
2023/06/20 06:49:10;;;;;;;32.27;29.40;;;;;;;25.79;54.76;100822.41;4981719;28;20461;-70
2023/06/20 06:51:39;;;;;;;39.97;33.23;;;;;;;26.10;53.27;100828.19;4977490;28;20398;-68
2023/06/20 06:54:10;;;;;;;35.47;32.27;;;;;;;26.35;52.99;100830.47;4980853;28;20860;-69
2023/06/20 06:56:39;;;;;;;30.93;28.13;;;;;;;26.55;52.52;100829.22;4975651;28;20895;-71
2023/06/20 06:59:08;;;;;;;35.97;32.67;;;;;;;26.52;52.32;100832.63;4974777;28;20427;-70
2023/06/20 07:01:38;;;;;;;35.80;32.63;;;;;;;26.64;52.51;100829.31;4973858;28;20438;-69
2023/06/20 07:04:07;;;;;;;31.70;29.03;;;;;;;26.68;51.89;100833.09;4978700;28;20423;-68
2023/06/20 07:06:36;;;;;;;34.60;31.70;;;;;;;26.22;53.09;100836.84;4976080;28;20459;-71
2023/06/20 07:09:05;;;;;;;34.83;31.83;;;;;;;26.17;53.51;100836.94;4977671;28;20561;-68
2023/06/20 07:11:36;;;;;;;35.27;32.03;;;;;;;26.09;54.01;100832.09;4976856;28;20463;-69
2023/06/20 07:14:05;;;;;;;34.67;31.33;;;;;;;26.05;53.70;100824.69;4974195;28;20439;-68
2023/06/20 07:16:35;;;;;;;35.50;32.20;;;;;;;26.15;53.46;100825.31;4974903;28;20455;-68
2023/06/20 07:19:04;;;;;;;33.17;30.07;;;;;;;26.22;53.86;100831.31;4990334;28;20906;-69
2023/06/20 07:21:33;;;;;;;38.07;34.47;;;;;;;26.39;53.09;100820.41;4975700;28;20446;-69
2023/06/20 07:24:02;;;;;;;36.23;32.80;;;;;;;26.10;53.25;100814.31;4975882;28;20879;-70
2023/06/20 07:26:32;;;;;;;36.03;33.03;;;;;;;25.81;54.79;100813.75;4979483;28;20462;-66
2023/06/20 07:29:02;;;;;;;36.83;33.57;;;;;;;25.80;55.23;100810.16;4975133;28;20435;-69
2023/06/20 07:31:31;;;;;;;33.83;30.90;;;;;;;26.03;55.05;100815.88;4975780;28;20941;-68
2023/06/20 07:34:00;;;;;;;34.87;31.87;;;;;;;26.33;53.95;100816.13;4975584;28;20537;-69
2023/06/20 07:36:30;;;;;;;36.93;33.57;;;;;;;26.51;52.91;100811.56;4979146;28;20530;-69
2023/06/20 07:38:59;;;;;;;34.10;31.17;;;;;;;26.43;53.28;100814.25;4973053;28;20912;-68
2023/06/20 07:41:28;;;;;;;33.30;30.47;;;;;;;26.72;52.65;100826.63;4974642;28;20832;-69
2023/06/20 07:43:57;;;;;;;34.50;31.43;;;;;;;27.12;52.39;100827.69;4974792;28;20435;-69
2023/06/20 07:46:29;;;;;;;32.53;29.73;;;;;;;26.90;52.08;100832.38;4971555;28;20463;-68
2023/06/20 07:48:58;;;;;;;35.70;32.13;;;;;;;26.78;52.33;100838.44;4971517;28;20459;-68
2023/06/20 07:51:30;;;;;;;36.37;33.03;;;;;;;26.66;52.72;100843.72;4971224;28;20980;-69
2023/06/20 07:54:00;;;;;;;35.70;32.50;;;;;;;26.74;52.30;100848.53;4971719;28;20462;-67
2023/06/20 07:56:29;;;;;;;36.17;32.97;;;;;;;26.66;52.80;100852.88;4974828;28;20453;-69
2023/06/20 07:58:59;;;;;;;34.13;31.00;;;;;;;26.77;52.81;100847.94;4971626;28;20423;-68
2023/06/20 08:01:31;;;;;;;34.27;31.03;;;;;;;27.16;51.99;100837.03;4973235;28;20946;-67
2023/06/20 08:04:00;;;;;;;36.23;32.33;;;;;;;27.24;51.88;100836.28;4971502;28;20980;-69
2023/06/20 08:06:30;;;;;;;35.10;31.77;;;;;;;27.39;51.63;100837.06;4972862;28;21011;-67
2023/06/20 08:08:59;;;;;;;36.17;32.90;;;;;;;27.13;51.86;100834.88;4973443;28;20532;-69
2023/06/20 08:11:29;;;;;;;36.27;33.07;;;;;;;27.13;51.78;100839.63;4976081;28;20442;-69
2023/06/20 08:13:58;;;;;;;36.17;33.17;;;;;;;27.06;52.09;100833.69;4974685;28;20453;-69
2023/06/20 08:16:29;;;;;;;36.37;33.07;;;;;;;27.32;52.00;100840.25;4975484;28;20433;-73
2023/06/20 08:18:58;;;;;;;38.30;34.80;;;;;;;27.27;52.41;100831.22;4975903;28;20433;-69
2023/06/20 08:21:27;;;;;;;37.63;33.87;;;;;;;27.40;52.05;100838.69;4973426;28;20435;-69
2023/06/20 08:23:56;;;;;;;36.27;33.00;;;;;;;27.24;52.70;100838.25;4973751;28;20517;-68
2023/06/20 08:26:26;;;;;;;35.57;32.20;;;;;;;27.19;52.71;100836.41;4971298;28;20519;-69
2023/06/20 08:28:55;;;;;;;34.07;30.87;;;;;;;27.32;52.54;100842.22;4971432;28;20470;-70
2023/06/20 08:31:36;;;;;;;35.30;32.00;;;;;;;27.06;53.34;100840.03;4971797;28;20804;-69
2023/06/20 08:34:07;;;;;;;34.93;31.53;;;;;;;27.14;53.10;100846.81;4972640;28;21550;-69
2023/06/20 08:36:36;;;;;;;37.87;34.57;;;;;;;27.12;53.69;100838.78;4973443;28;20442;-67
2023/06/20 08:39:05;;;;;;;38.53;35.30;;;;;;;27.03;53.83;100840.69;4975627;28;20755;-70
2023/06/20 08:41:34;;;;;;;35.87;32.77;;;;;;;27.05;53.44;100846.75;4970739;28;20447;-69
2023/06/20 08:44:04;;;;;;;35.17;31.93;;;;;;;26.95;54.18;100841.44;4972991;28;20780;-68
2023/06/20 08:46:33;;;;;;;38.60;35.00;;;;;;;26.96;54.26;100850.59;4971078;28;20549;-69
2023/06/20 08:49:03;;;;;;;35.37;32.20;;;;;;;27.01;54.24;100842.97;4973031;28;21020;-68
2023/06/20 08:51:37;;;;;;;37.07;33.30;;;;;;;27.19;53.34;100850.31;4972233;28;20442;-68
2023/06/20 08:54:13;;;;;;;37.43;34.27;;;;;;;27.24;53.31;100852.13;4972087;28;20446;-69
2023/06/20 08:56:43;;;;;;;37.23;33.90;;;;;;;27.21;53.57;100847.19;4974632;28;20490;-69
2023/06/20 08:59:13;;;;;;;35.93;32.77;;;;;;;27.21;52.84;100852.75;4973853;28;20453;-70
2023/06/20 09:01:42;;;;;;;36.73;33.53;;;;;;;27.12;53.21;100855.47;4972571;28;20862;-67
2023/06/20 09:04:11;;;;;;;34.33;31.23;;;;;;;27.35;54.20;100869.38;4970331;28;20442;-69
2023/06/20 09:06:42;;;;;;;33.90;30.90;;;;;;;27.24;54.25;100885.47;4967366;28;20458;-69
2023/06/20 09:09:16;;;;;;;36.13;32.43;;;;;;;26.99;54.45;100895.22;4975516;28;21079;-68
2023/06/20 09:11:52;;;;;;;38.00;34.03;;;;;;;26.68;55.10;100894.19;4968450;28;20569;-69
2023/06/20 09:14:27;;;;;;;35.83;32.73;;;;;;;26.18;56.12;100902.38;4976233;28;20469;-70
2023/06/20 09:16:58;;;;;;;40.03;36.23;;;;;;;26.13;56.98;100909.97;4973690;28;20549;-68
2023/06/20 09:19:27;;;;;;;35.97;32.67;;;;;;;26.25;56.77;100907.53;4969938;28;20810;-68
2023/06/20 09:22:06;;;;;;;38.63;35.07;;;;;;;25.87;56.97;100923.44;4974807;28;20442;-69
2023/06/20 09:24:45;;;;;;;35.77;32.43;;;;;;;25.79;57.44;100943.53;4970649;28;20762;-68
2023/06/20 09:27:15;;;;;;;38.53;34.53;;;;;;;25.63;57.80;100956.81;4969779;28;20529;-69
2023/06/20 09:29:51;;;;;;;34.60;31.60;;;;;;;25.49;58.48;100959.50;4971560;28;20521;-67
2023/06/20 09:32:22;;;;;;;33.83;30.70;;;;;;;25.34;59.75;100975.50;4973099;28;20430;-69
2023/06/20 09:34:52;;;;;;;33.57;30.77;;;;;;;25.29;60.85;100973.63;4972614;28;20434;-69
2023/06/20 09:37:22;;;;;;;32.97;29.93;;;;;;;25.02;62.15;100979.00;4968793;28;20450;-69
2023/06/20 09:39:51;;;;;;;34.10;31.10;;;;;;;24.53;64.12;100985.63;4974027;28;21211;-68
2023/06/20 09:42:20;;;;;;;37.90;34.30;;;;;;;24.39;65.72;100987.44;4970658;28;20434;-70
2023/06/20 09:44:49;;;;;;;36.50;32.90;;;;;;;24.01;67.42;100993.84;4969805;28;20416;-67
2023/06/20 09:47:20;;;;;;;36.63;33.40;;;;;;;23.83;68.90;100996.16;4968343;28;20457;-69
2023/06/20 09:49:50;;;;;;;39.20;35.57;;;;;;;23.32;71.85;101005.84;4969642;28;20520;-68
2023/06/20 09:52:22;;;;;;;37.97;34.37;;;;;;;23.22;74.96;101016.94;4970980;28;20927;-69
2023/06/20 09:54:56;;;;;;;40.80;36.93;;;;;;;22.73;80.63;101023.19;4973611;28;20936;-71
2023/06/20 09:57:33;;;;;;;38.10;34.20;;;;;;;22.16;85.42;101019.94;4975087;28;20445;-71
2023/06/20 10:00:06;;;;;;;40.03;36.03;;;;;;;21.97;89.21;101009.47;4975818;28;20431;-70
2023/06/20 10:02:37;;;;;;;39.80;36.07;;;;;;;21.39;94.06;101010.72;4974180;28;20400;-71
2023/06/20 10:05:07;;;;;;;41.13;36.93;;;;;;;21.32;97.34;100995.53;4971785;28;20407;-71
2023/06/20 10:07:39;;;;;;;41.87;37.97;;;;;;;21.19;97.60;100983.94;4982040;28;20824;-71
2023/06/20 10:10:08;;;;;;;41.37;37.17;;;;;;;21.11;99.86;100987.19;4981976;28;20478;-70
2023/06/20 10:12:39;;;;;;;39.90;35.97;;;;;;;21.30;99.97;100995.00;4974078;28;20761;-70
2023/06/20 10:15:10;;;;;;;41.03;36.97;;;;;;;21.44;100.00;100990.63;4973084;28;20409;-70
2023/06/20 10:17:41;;;;;;;42.47;38.47;;;;;;;21.45;99.10;100986.75;4975022;28;20433;-70
2023/06/20 10:20:27;;;;;;;39.10;35.40;;;;;;;21.05;100.00;100985.53;4973934;28;20455;-68
2023/06/20 10:23:03;;;;;;;37.83;34.33;;;;;;;21.11;100.00;100984.41;4974021;28;20454;-68
2023/06/20 10:25:33;;;;;;;43.00;38.70;;;;;;;21.03;100.00;100987.69;4977009;28;20843;-69
2023/06/20 10:28:05;;;;;;;40.80;36.80;;;;;;;20.91;100.00;100987.13;4975286;28;20955;-74
2023/06/20 10:30:56;;;;;;;39.33;35.30;;;;;;;20.90;100.00;100985.44;4976101;28;20524;-70
2023/06/20 10:33:28;;;;;;;45.30;40.57;;;;;;;20.75;100.00;100982.63;4977695;28;20494;-70
2023/06/20 10:35:59;;;;;;;43.40;38.80;;;;;;;20.75;100.00;100977.13;4978170;28;20458;-71
2023/06/20 10:38:31;;;;;;;40.13;36.13;;;;;;;20.63;100.00;100973.75;4978062;28;20889;-69
2023/06/20 10:41:14;;;;;;;43.97;37.90;;;;;;;20.58;100.00;100970.97;4980725;28;20404;-70
2023/06/20 10:43:51;;;;;;;41.13;36.90;;;;;;;20.65;100.00;100968.81;4977702;28;20433;-69
2023/06/20 10:46:22;;;;;;;42.67;38.33;;;;;;;20.66;100.00;100960.31;4980060;28;20429;-70
2023/06/20 10:48:51;;;;;;;44.27;39.60;;;;;;;20.70;100.00;100952.34;4975592;28;20507;-70
2023/06/20 10:51:21;;;;;;;46.70;40.10;;;;;;;20.59;100.00;100956.13;4978179;28;20526;-69
2023/06/20 10:53:51;;;;;;;48.47;39.63;;;;;;;20.67;100.00;100944.66;4976890;28;20428;-69
2023/06/20 10:56:28;;;;;;;43.20;38.80;;;;;;;20.79;100.00;100939.75;4974227;28;20437;-68
2023/06/20 10:58:57;;;;;;;46.70;41.60;;;;;;;20.78;100.00;100938.06;4973487;28;20691;-70
2023/06/20 11:01:29;;;;;;;46.43;39.40;;;;;;;20.82;100.00;100929.03;4976497;28;20496;-71
2023/06/20 11:04:01;;;;;;;40.90;36.60;;;;;;;20.90;100.00;100935.94;4973082;28;20930;-71
2023/06/20 11:06:31;;;;;;;45.83;39.37;;;;;;;21.04;100.00;100926.09;4977029;28;20439;-70
2023/06/20 11:09:02;;;;;;;43.40;39.10;;;;;;;20.97;100.00;100936.50;4973795;28;20536;-69
2023/06/20 11:11:35;;;;;;;42.93;37.83;;;;;;;21.03;100.00;100937.34;4977953;28;20816;-70
2023/06/20 11:14:11;;;;;;;42.90;37.90;;;;;;;21.20;100.00;100933.28;4977363;28;20790;-71
2023/06/20 11:16:40;;;;;;;42.40;38.03;;;;;;;21.37;100.00;100924.81;4972647;28;20527;-73
2023/06/20 11:19:10;;;;;;;40.20;36.30;;;;;;;21.42;100.00;100932.25;4976509;28;20425;-69
2023/06/20 11:22:01;;;;;;;41.80;37.80;;;;;;;21.50;100.00;100918.75;4974564;28;20397;-70
2023/06/20 11:24:35;;;;;;;42.43;38.30;;;;;;;21.67;100.00;100918.50;4973426;28;20944;-70
2023/06/20 11:27:13;;;;;;;42.20;37.70;;;;;;;21.80;100.00;100912.44;4975335;28;20420;-68